sensor_id;sensor_type;location;lat;lon;timestamp;temperature;humidity
6186;DHT22;3126;52.738;8.316;2023-06-14T00:04:27;16.20;58.20
6186;DHT22;3126;52.738;8.316;2023-06-14T00:09:28;16.10;58.80
6186;DHT22;3126;52.738;8.316;2023-06-14T00:14:29;16.00;59.30
6186;DHT22;3126;52.738;8.316;2023-06-14T00:19:30;15.90;59.70
6186;DHT22;3126;52.738;8.316;2023-06-14T00:24:33;15.80;60.10
6186;DHT22;3126;52.738;8.316;2023-06-14T00:34:35;16.10;61.10
6186;DHT22;3126;52.738;8.316;2023-06-14T00:39:35;15.60;61.80
6186;DHT22;3126;52.738;8.316;2023-06-14T00:44:36;15.50;62.50
6186;DHT22;3126;52.738;8.316;2023-06-14T00:49:36;15.40;62.80
6186;DHT22;3126;52.738;8.316;2023-06-14T00:54:37;15.30;63.40
6186;DHT22;3126;52.738;8.316;2023-06-14T00:59:44;15.30;63.80
6186;DHT22;3126;52.738;8.316;2023-06-14T01:04:47;15.10;64.40
6186;DHT22;3126;52.738;8.316;2023-06-14T01:14:55;14.90;65.60
6186;DHT22;3126;52.738;8.316;2023-06-14T01:20:06;14.80;66.30
6186;DHT22;3126;52.738;8.316;2023-06-14T01:25:10;14.70;66.90
6186;DHT22;3126;52.738;8.316;2023-06-14T01:30:12;14.60;67.60
6186;DHT22;3126;52.738;8.316;2023-06-14T01:35:13;14.60;68.20
6186;DHT22;3126;52.738;8.316;2023-06-14T01:40:18;14.50;68.50
6186;DHT22;3126;52.738;8.316;2023-06-14T01:45:19;14.40;69.20
6186;DHT22;3126;52.738;8.316;2023-06-14T01:50:21;14.40;69.60
6186;DHT22;3126;52.738;8.316;2023-06-14T01:55:21;14.30;70.20
6186;DHT22;3126;52.738;8.316;2023-06-14T02:00:22;14.30;70.70
6186;DHT22;3126;52.738;8.316;2023-06-14T02:05:23;14.20;71.10
6186;DHT22;3126;52.738;8.316;2023-06-14T02:10:24;14.20;71.40
6186;DHT22;3126;52.738;8.316;2023-06-14T02:15:25;14.10;72.00
6186;DHT22;3126;52.738;8.316;2023-06-14T02:20:33;14.00;72.60
6186;DHT22;3126;52.738;8.316;2023-06-14T02:25:34;13.90;73.20
6186;DHT22;3126;52.738;8.316;2023-06-14T02:30:35;13.90;73.70
6186;DHT22;3126;52.738;8.316;2023-06-14T02:35:36;13.80;74.20
6186;DHT22;3126;52.738;8.316;2023-06-14T02:40:37;13.80;74.50
6186;DHT22;3126;52.738;8.316;2023-06-14T02:50:40;13.70;74.90
6186;DHT22;3126;52.738;8.316;2023-06-14T02:55:40;13.50;76.00
6186;DHT22;3126;52.738;8.316;2023-06-14T03:00:41;13.50;76.50
6186;DHT22;3126;52.738;8.316;2023-06-14T03:05:47;13.40;77.00
6186;DHT22;3126;52.738;8.316;2023-06-14T03:15:50;13.30;77.60
6186;DHT22;3126;52.738;8.316;2023-06-14T03:20:52;13.20;78.40
6186;DHT22;3126;52.738;8.316;2023-06-14T03:45:57;13.20;78.50
6186;DHT22;3126;52.738;8.316;2023-06-14T03:50:58;13.10;79.90
6186;DHT22;3126;52.738;8.316;2023-06-14T03:55:58;13.10;79.90
6186;DHT22;3126;52.738;8.316;2023-06-14T04:01:00;13.20;80.10
6186;DHT22;3126;52.738;8.316;2023-06-14T04:06:01;13.20;80.00
6186;DHT22;3126;52.738;8.316;2023-06-14T05:06:18;13.30;80.00
6186;DHT22;3126;52.738;8.316;2023-06-14T05:11:19;14.40;77.30
6186;DHT22;3126;52.738;8.316;2023-06-14T05:21:23;14.60;76.40
6186;DHT22;3126;52.738;8.316;2023-06-14T05:26:23;14.90;74.10
6186;DHT22;3126;52.738;8.316;2023-06-14T05:31:28;15.10;74.20
6186;DHT22;3126;52.738;8.316;2023-06-14T05:36:29;16.00;70.90
6186;DHT22;3126;52.738;8.316;2023-06-14T05:41:30;16.40;69.20
6186;DHT22;3126;52.738;8.316;2023-06-14T05:46:30;16.70;66.40
6186;DHT22;3126;52.738;8.316;2023-06-14T05:56:32;17.40;65.10
6186;DHT22;3126;52.738;8.316;2023-06-14T06:01:32;17.30;64.30
6186;DHT22;3126;52.738;8.316;2023-06-14T06:11:36;18.30;61.70
6186;DHT22;3126;52.738;8.316;2023-06-14T06:16:36;18.20;61.70
6186;DHT22;3126;52.738;8.316;2023-06-14T06:26:38;19.30;58.40
6186;DHT22;3126;52.738;8.316;2023-06-14T06:31:40;19.30;55.80
6186;DHT22;3126;52.738;8.316;2023-06-14T06:36:40;19.70;54.30
6186;DHT22;3126;52.738;8.316;2023-06-14T06:41:42;20.30;52.80
6186;DHT22;3126;52.738;8.316;2023-06-14T06:46:43;21.50;50.70
6186;DHT22;3126;52.738;8.316;2023-06-14T06:52:02;22.40;48.30
6186;DHT22;3126;52.738;8.316;2023-06-14T06:57:03;22.90;46.30
6186;DHT22;3126;52.738;8.316;2023-06-14T07:02:04;23.50;44.70
6186;DHT22;3126;52.738;8.316;2023-06-14T07:07:05;23.60;44.40
6186;DHT22;3126;52.738;8.316;2023-06-14T07:12:06;23.90;43.10
6186;DHT22;3126;52.738;8.316;2023-06-14T07:17:07;23.70;43.70
6186;DHT22;3126;52.738;8.316;2023-06-14T07:22:07;23.90;43.40
6186;DHT22;3126;52.738;8.316;2023-06-14T07:27:08;23.80;42.60
6186;DHT22;3126;52.738;8.316;2023-06-14T07:32:08;23.70;42.20
6186;DHT22;3126;52.738;8.316;2023-06-14T07:37:09;23.30;42.70
6186;DHT22;3126;52.738;8.316;2023-06-14T07:42:09;23.40;42.50
6186;DHT22;3126;52.738;8.316;2023-06-14T07:47:11;23.40;42.40
6186;DHT22;3126;52.738;8.316;2023-06-14T07:52:11;23.40;41.20
6186;DHT22;3126;52.738;8.316;2023-06-14T07:57:13;23.40;40.00
6186;DHT22;3126;52.738;8.316;2023-06-14T08:02:14;23.70;40.30
6186;DHT22;3126;52.738;8.316;2023-06-14T08:07:15;24.00;40.50
6186;DHT22;3126;52.738;8.316;2023-06-14T08:12:15;24.30;39.50
6186;DHT22;3126;52.738;8.316;2023-06-14T08:17:16;24.20;40.30
6186;DHT22;3126;52.738;8.316;2023-06-14T08:22:16;24.50;39.30
6186;DHT22;3126;52.738;8.316;2023-06-14T08:27:18;24.30;39.30
6186;DHT22;3126;52.738;8.316;2023-06-14T08:32:19;24.30;38.40
6186;DHT22;3126;52.738;8.316;2023-06-14T08:37:20;24.80;38.70
6186;DHT22;3126;52.738;8.316;2023-06-14T08:42:21;24.90;37.20
6186;DHT22;3126;52.738;8.316;2023-06-14T08:47:26;25.00;38.20
6186;DHT22;3126;52.738;8.316;2023-06-14T08:52:33;25.00;37.80
6186;DHT22;3126;52.738;8.316;2023-06-14T08:57:36;25.20;36.80
6186;DHT22;3126;52.738;8.316;2023-06-14T09:02:38;25.50;36.60
6186;DHT22;3126;52.738;8.316;2023-06-14T09:07:44;25.50;36.90
6186;DHT22;3126;52.738;8.316;2023-06-14T09:12:44;25.30;36.10
6186;DHT22;3126;52.738;8.316;2023-06-14T09:17:45;25.30;36.30
6186;DHT22;3126;52.738;8.316;2023-06-14T09:22:46;25.40;37.50
6186;DHT22;3126;52.738;8.316;2023-06-14T09:27:47;25.70;37.10
6186;DHT22;3126;52.738;8.316;2023-06-14T09:32:47;26.00;36.70
6186;DHT22;3126;52.738;8.316;2023-06-14T09:37:48;26.20;36.60
6186;DHT22;3126;52.738;8.316;2023-06-14T09:42:49;26.30;35.50
6186;DHT22;3126;52.738;8.316;2023-06-14T09:47:50;26.10;36.60
6186;DHT22;3126;52.738;8.316;2023-06-14T09:52:52;26.20;37.00
6186;DHT22;3126;52.738;8.316;2023-06-14T09:57:56;26.30;36.10
6186;DHT22;3126;52.738;8.316;2023-06-14T10:03:03;26.40;36.20
6186;DHT22;3126;52.738;8.316;2023-06-14T10:08:09;26.30;35.70
6186;DHT22;3126;52.738;8.316;2023-06-14T10:13:11;26.00;36.50
6186;DHT22;3126;52.738;8.316;2023-06-14T10:23:28;26.30;35.60
6186;DHT22;3126;52.738;8.316;2023-06-14T10:28:29;26.50;35.80
6186;DHT22;3126;52.738;8.316;2023-06-14T10:33:31;27.00;35.00
6186;DHT22;3126;52.738;8.316;2023-06-14T10:38:32;27.40;35.20
6186;DHT22;3126;52.738;8.316;2023-06-14T10:43:34;27.20;34.30
6186;DHT22;3126;52.738;8.316;2023-06-14T10:48:40;27.20;33.80
6186;DHT22;3126;52.738;8.316;2023-06-14T10:53:42;27.40;34.50
6186;DHT22;3126;52.738;8.316;2023-06-14T10:58:43;27.60;34.20
6186;DHT22;3126;52.738;8.316;2023-06-14T11:03:51;27.50;34.70
6186;DHT22;3126;52.738;8.316;2023-06-14T11:14:34;27.30;34.70
6186;DHT22;3126;52.738;8.316;2023-06-14T11:19:35;27.70;34.10
6186;DHT22;3126;52.738;8.316;2023-06-14T11:24:36;27.80;34.70
6186;DHT22;3126;52.738;8.316;2023-06-14T11:29:37;27.90;34.30
6186;DHT22;3126;52.738;8.316;2023-06-14T11:34:37;28.20;32.90
6186;DHT22;3126;52.738;8.316;2023-06-14T11:39:43;28.30;33.40
6186;DHT22;3126;52.738;8.316;2023-06-14T11:44:46;28.00;34.30
6186;DHT22;3126;52.738;8.316;2023-06-14T11:49:47;28.40;32.80
6186;DHT22;3126;52.738;8.316;2023-06-14T11:54:48;28.40;33.90
6186;DHT22;3126;52.738;8.316;2023-06-14T11:59:49;28.40;33.10
6186;DHT22;3126;52.738;8.316;2023-06-14T12:04:49;27.90;33.20
6186;DHT22;3126;52.738;8.316;2023-06-14T12:14:55;27.90;33.30
6186;DHT22;3126;52.738;8.316;2023-06-14T12:19:56;27.90;33.40
6186;DHT22;3126;52.738;8.316;2023-06-14T12:24:57;27.60;33.80
6186;DHT22;3126;52.738;8.316;2023-06-14T12:30:04;27.60;33.90
6186;DHT22;3126;52.738;8.316;2023-06-14T12:35:05;28.00;33.10
6186;DHT22;3126;52.738;8.316;2023-06-14T12:40:06;27.80;33.80
6186;DHT22;3126;52.738;8.316;2023-06-14T12:45:08;28.10;33.40
6186;DHT22;3126;52.738;8.316;2023-06-14T12:50:09;28.00;33.00
6186;DHT22;3126;52.738;8.316;2023-06-14T12:55:10;28.30;32.70
6186;DHT22;3126;52.738;8.316;2023-06-14T13:00:11;28.60;32.10
6186;DHT22;3126;52.738;8.316;2023-06-14T13:05:13;28.50;31.90
6186;DHT22;3126;52.738;8.316;2023-06-14T13:10:13;28.30;32.70
6186;DHT22;3126;52.738;8.316;2023-06-14T13:15:14;28.50;33.10
6186;DHT22;3126;52.738;8.316;2023-06-14T13:20:15;28.00;33.50
6186;DHT22;3126;52.738;8.316;2023-06-14T13:25:16;27.70;34.00
6186;DHT22;3126;52.738;8.316;2023-06-14T13:30:17;27.70;33.80
6186;DHT22;3126;52.738;8.316;2023-06-14T13:35:18;27.00;34.30
6186;DHT22;3126;52.738;8.316;2023-06-14T13:40:19;26.80;35.10
6186;DHT22;3126;52.738;8.316;2023-06-14T13:45:20;27.30;34.80
6186;DHT22;3126;52.738;8.316;2023-06-14T13:50:20;27.40;33.60
6186;DHT22;3126;52.738;8.316;2023-06-14T13:55:21;26.80;34.20
6186;DHT22;3126;52.738;8.316;2023-06-14T14:00:22;26.40;35.40
6186;DHT22;3126;52.738;8.316;2023-06-14T14:05:23;26.50;37.20
6186;DHT22;3126;52.738;8.316;2023-06-14T14:10:29;27.20;36.60
6186;DHT22;3126;52.738;8.316;2023-06-14T14:15:29;27.40;35.40
6186;DHT22;3126;52.738;8.316;2023-06-14T14:20:31;27.00;34.90
6186;DHT22;3126;52.738;8.316;2023-06-14T14:25:31;26.50;36.00
6186;DHT22;3126;52.738;8.316;2023-06-14T14:30:32;26.10;35.60
6186;DHT22;3126;52.738;8.316;2023-06-14T14:35:33;26.40;37.40
6186;DHT22;3126;52.738;8.316;2023-06-14T14:40:33;26.60;36.30
6186;DHT22;3126;52.738;8.316;2023-06-14T14:45:34;26.90;34.70
6186;DHT22;3126;52.738;8.316;2023-06-14T14:50:34;26.70;35.80
6186;DHT22;3126;52.738;8.316;2023-06-14T14:55:35;26.70;35.40
6186;DHT22;3126;52.738;8.316;2023-06-14T15:00:37;26.90;35.80
6186;DHT22;3126;52.738;8.316;2023-06-14T15:05:38;26.90;34.60
6186;DHT22;3126;52.738;8.316;2023-06-14T15:10:39;26.50;35.90
6186;DHT22;3126;52.738;8.316;2023-06-14T15:15:41;26.40;36.10
6186;DHT22;3126;52.738;8.316;2023-06-14T15:20:42;26.00;36.50
6186;DHT22;3126;52.738;8.316;2023-06-14T15:25:43;25.60;38.00
6186;DHT22;3126;52.738;8.316;2023-06-14T15:30:43;25.60;38.00
6186;DHT22;3126;52.738;8.316;2023-06-14T15:35:44;25.50;37.10
6186;DHT22;3126;52.738;8.316;2023-06-14T15:40:44;25.50;37.30
6186;DHT22;3126;52.738;8.316;2023-06-14T15:45:46;25.70;37.40
6186;DHT22;3126;52.738;8.316;2023-06-14T15:50:46;25.90;38.20
6186;DHT22;3126;52.738;8.316;2023-06-14T15:55:47;26.00;38.10
6186;DHT22;3126;52.738;8.316;2023-06-14T16:00:47;26.00;37.00
6186;DHT22;3126;52.738;8.316;2023-06-14T16:05:48;26.10;36.80
6186;DHT22;3126;52.738;8.316;2023-06-14T16:10:48;26.00;37.80
6186;DHT22;3126;52.738;8.316;2023-06-14T16:15:49;25.70;37.60
6186;DHT22;3126;52.738;8.316;2023-06-14T16:20:50;25.30;38.30
6186;DHT22;3126;52.738;8.316;2023-06-14T16:25:50;25.30;37.80
6186;DHT22;3126;52.738;8.316;2023-06-14T16:30:51;25.50;37.10
6186;DHT22;3126;52.738;8.316;2023-06-14T16:35:51;25.40;37.80
6186;DHT22;3126;52.738;8.316;2023-06-14T16:40:52;25.40;37.80
6186;DHT22;3126;52.738;8.316;2023-06-14T16:45:53;25.40;37.90
6186;DHT22;3126;52.738;8.316;2023-06-14T16:50:53;25.20;37.40
6186;DHT22;3126;52.738;8.316;2023-06-14T16:55:54;25.10;39.20
6186;DHT22;3126;52.738;8.316;2023-06-14T17:00:54;25.20;39.50
6186;DHT22;3126;52.738;8.316;2023-06-14T17:05:56;25.30;39.10
6186;DHT22;3126;52.738;8.316;2023-06-14T17:10:57;25.20;37.90
6186;DHT22;3126;52.738;8.316;2023-06-14T17:16:01;25.10;38.40
6186;DHT22;3126;52.738;8.316;2023-06-14T17:21:01;24.90;39.40
6186;DHT22;3126;52.738;8.316;2023-06-14T17:26:02;24.80;38.70
6186;DHT22;3126;52.738;8.316;2023-06-14T17:31:03;24.70;38.10
6186;DHT22;3126;52.738;8.316;2023-06-14T17:36:04;24.50;38.80
6186;DHT22;3126;52.738;8.316;2023-06-14T17:41:05;24.40;38.60
6186;DHT22;3126;52.738;8.316;2023-06-14T17:46:12;24.40;38.60
6186;DHT22;3126;52.738;8.316;2023-06-14T17:51:12;24.20;39.00
6186;DHT22;3126;52.738;8.316;2023-06-14T17:56:15;24.00;39.70
6186;DHT22;3126;52.738;8.316;2023-06-14T18:01:16;23.80;40.00
6186;DHT22;3126;52.738;8.316;2023-06-14T18:06:19;23.70;40.90
6186;DHT22;3126;52.738;8.316;2023-06-14T18:11:19;23.60;40.70
6186;DHT22;3126;52.738;8.316;2023-06-14T18:16:20;23.40;41.20
6186;DHT22;3126;52.738;8.316;2023-06-14T18:21:21;23.20;41.50
6186;DHT22;3126;52.738;8.316;2023-06-14T18:26:23;23.00;42.30
6186;DHT22;3126;52.738;8.316;2023-06-14T18:31:26;22.90;43.30
6186;DHT22;3126;52.738;8.316;2023-06-14T18:36:27;22.80;43.60
6186;DHT22;3126;52.738;8.316;2023-06-14T18:41:27;22.60;45.30
6186;DHT22;3126;52.738;8.316;2023-06-14T18:46:28;22.40;46.70
6186;DHT22;3126;52.738;8.316;2023-06-14T18:51:31;22.20;45.70
6186;DHT22;3126;52.738;8.316;2023-06-14T18:56:34;21.90;47.10
6186;DHT22;3126;52.738;8.316;2023-06-14T19:01:35;21.70;47.80
6186;DHT22;3126;52.738;8.316;2023-06-14T19:06:35;21.60;49.80
6186;DHT22;3126;52.738;8.316;2023-06-14T19:11:36;21.40;48.70
6186;DHT22;3126;52.738;8.316;2023-06-14T19:16:36;21.30;50.50
6186;DHT22;3126;52.738;8.316;2023-06-14T19:21:37;21.20;51.00
6186;DHT22;3126;52.738;8.316;2023-06-14T19:26:37;21.10;51.50
6186;DHT22;3126;52.738;8.316;2023-06-14T19:31:38;21.00;50.90
6186;DHT22;3126;52.738;8.316;2023-06-14T19:36:38;21.00;51.60
6186;DHT22;3126;52.738;8.316;2023-06-14T19:41:39;20.90;51.40
6186;DHT22;3126;52.738;8.316;2023-06-14T19:46:40;20.80;52.50
6186;DHT22;3126;52.738;8.316;2023-06-14T19:51:40;20.70;52.40
6186;DHT22;3126;52.738;8.316;2023-06-14T19:56:41;20.60;50.60
6186;DHT22;3126;52.738;8.316;2023-06-14T20:01:41;20.50;53.10
6186;DHT22;3126;52.738;8.316;2023-06-14T20:06:42;20.40;53.40
6186;DHT22;3126;52.738;8.316;2023-06-14T20:11:42;20.20;55.00
6186;DHT22;3126;52.738;8.316;2023-06-14T20:16:43;20.00;55.70
6186;DHT22;3126;52.738;8.316;2023-06-14T20:21:43;19.90;56.00
6186;DHT22;3126;52.738;8.316;2023-06-14T20:26:44;19.70;56.90
6186;DHT22;3126;52.738;8.316;2023-06-14T20:31:45;19.60;56.50
6186;DHT22;3126;52.738;8.316;2023-06-14T20:36:45;19.40;57.10
6186;DHT22;3126;52.738;8.316;2023-06-14T20:41:46;19.20;56.20
6186;DHT22;3126;52.738;8.316;2023-06-14T20:46:46;19.00;57.10
6186;DHT22;3126;52.738;8.316;2023-06-14T20:51:47;18.80;57.70
6186;DHT22;3126;52.738;8.316;2023-06-14T20:56:48;18.70;57.10
6186;DHT22;3126;52.738;8.316;2023-06-14T21:01:48;18.70;57.50
6186;DHT22;3126;52.738;8.316;2023-06-14T21:06:49;18.50;58.20
6186;DHT22;3126;52.738;8.316;2023-06-14T21:11:50;18.50;59.10
6186;DHT22;3126;52.738;8.316;2023-06-14T21:16:50;18.40;59.30
6186;DHT22;3126;52.738;8.316;2023-06-14T21:21:53;18.30;59.20
6186;DHT22;3126;52.738;8.316;2023-06-14T21:26:55;18.20;58.70
6186;DHT22;3126;52.738;8.316;2023-06-14T21:31:55;18.10;58.90
6186;DHT22;3126;52.738;8.316;2023-06-14T21:36:56;18.10;58.50
6186;DHT22;3126;52.738;8.316;2023-06-14T21:41:56;18.00;58.80
6186;DHT22;3126;52.738;8.316;2023-06-14T21:46:57;17.90;60.10
6186;DHT22;3126;52.738;8.316;2023-06-14T21:51:58;17.80;60.40
6186;DHT22;3126;52.738;8.316;2023-06-14T21:56:59;17.60;60.50
6186;DHT22;3126;52.738;8.316;2023-06-14T22:01:59;17.50;60.80
6186;DHT22;3126;52.738;8.316;2023-06-14T22:07:00;17.40;61.20
6186;DHT22;3126;52.738;8.316;2023-06-14T22:12:00;17.40;60.90
6186;DHT22;3126;52.738;8.316;2023-06-14T22:17:01;17.30;61.60
6186;DHT22;3126;52.738;8.316;2023-06-14T22:22:03;17.30;61.90
6186;DHT22;3126;52.738;8.316;2023-06-14T22:27:04;17.20;63.20
6186;DHT22;3126;52.738;8.316;2023-06-14T22:32:05;17.10;63.80
6186;DHT22;3126;52.738;8.316;2023-06-14T22:37:06;16.90;63.80
6186;DHT22;3126;52.738;8.316;2023-06-14T22:42:08;16.80;63.80
6186;DHT22;3126;52.738;8.316;2023-06-14T22:47:09;16.70;65.20
6186;DHT22;3126;52.738;8.316;2023-06-14T22:52:10;16.60;65.30
6186;DHT22;3126;52.738;8.316;2023-06-14T22:57:11;16.50;65.30
6186;DHT22;3126;52.738;8.316;2023-06-14T23:02:18;16.40;66.70
6186;DHT22;3126;52.738;8.316;2023-06-14T23:07:18;16.30;66.30
6186;DHT22;3126;52.738;8.316;2023-06-14T23:12:26;16.30;66.90
6186;DHT22;3126;52.738;8.316;2023-06-14T23:17:29;16.20;67.90
6186;DHT22;3126;52.738;8.316;2023-06-14T23:22:31;16.00;67.70
6186;DHT22;3126;52.738;8.316;2023-06-14T23:27:35;16.00;67.90
6186;DHT22;3126;52.738;8.316;2023-06-14T23:32:37;15.90;68.10
6186;DHT22;3126;52.738;8.316;2023-06-14T23:37:39;15.80;68.40
6186;DHT22;3126;52.738;8.316;2023-06-14T23:42:41;15.70;67.40
6186;DHT22;3126;52.738;8.316;2023-06-14T23:47:42;15.60;66.40
6186;DHT22;3126;52.738;8.316;2023-06-14T23:52:42;15.60;66.40
6186;DHT22;3126;52.738;8.316;2023-06-14T23:57:43;15.50;66.40
